sensor_id;sensor_type;location;lat;lon;timestamp;temperature;humidity
3053;DHT22;1536;51.098;6.414;2023-05-07T00:01:41;17.00;99.90
3053;DHT22;1536;51.098;6.414;2023-05-07T00:04:10;17.00;99.90
3053;DHT22;1536;51.098;6.414;2023-05-07T00:06:36;17.00;99.90
3053;DHT22;1536;51.098;6.414;2023-05-07T00:09:03;17.00;99.90
3053;DHT22;1536;51.098;6.414;2023-05-07T00:11:30;17.00;99.90
3053;DHT22;1536;51.098;6.414;2023-05-07T00:13:57;16.90;99.90
3053;DHT22;1536;51.098;6.414;2023-05-07T00:16:24;16.90;99.90
3053;DHT22;1536;51.098;6.414;2023-05-07T00:18:51;16.90;99.90
3053;DHT22;1536;51.098;6.414;2023-05-07T00:21:19;16.90;99.90
3053;DHT22;1536;51.098;6.414;2023-05-07T00:23:46;16.90;99.90
3053;DHT22;1536;51.098;6.414;2023-05-07T00:26:13;16.90;99.90
3053;DHT22;1536;51.098;6.414;2023-05-07T00:28:40;16.90;99.90
3053;DHT22;1536;51.098;6.414;2023-05-07T00:31:07;16.90;99.90
3053;DHT22;1536;51.098;6.414;2023-05-07T00:33:34;16.90;99.90
3053;DHT22;1536;51.098;6.414;2023-05-07T00:36:00;16.90;99.90
3053;DHT22;1536;51.098;6.414;2023-05-07T00:38:28;16.90;99.90
3053;DHT22;1536;51.098;6.414;2023-05-07T00:40:55;16.90;99.90
3053;DHT22;1536;51.098;6.414;2023-05-07T00:43:22;16.90;99.90
3053;DHT22;1536;51.098;6.414;2023-05-07T00:45:48;16.90;99.90
3053;DHT22;1536;51.098;6.414;2023-05-07T00:48:15;16.90;99.90
3053;DHT22;1536;51.098;6.414;2023-05-07T00:50:43;16.90;99.90
3053;DHT22;1536;51.098;6.414;2023-05-07T00:53:10;16.90;99.90
3053;DHT22;1536;51.098;6.414;2023-05-07T00:55:38;16.90;99.90
3053;DHT22;1536;51.098;6.414;2023-05-07T00:58:05;16.90;99.90
3053;DHT22;1536;51.098;6.414;2023-05-07T01:00:32;16.90;99.90
3053;DHT22;1536;51.098;6.414;2023-05-07T01:02:59;16.80;99.90
3053;DHT22;1536;51.098;6.414;2023-05-07T01:05:26;16.80;99.90
3053;DHT22;1536;51.098;6.414;2023-05-07T01:07:53;16.90;99.90
3053;DHT22;1536;51.098;6.414;2023-05-07T01:10:22;16.80;99.90
3053;DHT22;1536;51.098;6.414;2023-05-07T01:12:51;16.80;99.90
3053;DHT22;1536;51.098;6.414;2023-05-07T01:15:18;16.80;99.90
3053;DHT22;1536;51.098;6.414;2023-05-07T01:17:45;16.80;99.90
3053;DHT22;1536;51.098;6.414;2023-05-07T01:20:12;16.80;99.90
3053;DHT22;1536;51.098;6.414;2023-05-07T01:22:40;16.80;99.90
3053;DHT22;1536;51.098;6.414;2023-05-07T01:25:09;16.80;99.90
3053;DHT22;1536;51.098;6.414;2023-05-07T01:27:36;16.80;99.90
3053;DHT22;1536;51.098;6.414;2023-05-07T01:30:03;16.80;99.90
3053;DHT22;1536;51.098;6.414;2023-05-07T01:32:33;16.80;99.90
3053;DHT22;1536;51.098;6.414;2023-05-07T01:35:02;16.80;99.90
3053;DHT22;1536;51.098;6.414;2023-05-07T01:37:30;16.80;99.90
3053;DHT22;1536;51.098;6.414;2023-05-07T01:39:58;16.70;99.90
3053;DHT22;1536;51.098;6.414;2023-05-07T01:42:25;16.70;99.90
3053;DHT22;1536;51.098;6.414;2023-05-07T01:44:51;16.70;99.90
3053;DHT22;1536;51.098;6.414;2023-05-07T01:47:19;16.70;99.90
3053;DHT22;1536;51.098;6.414;2023-05-07T01:49:47;16.70;99.90
3053;DHT22;1536;51.098;6.414;2023-05-07T01:52:13;16.70;99.90
3053;DHT22;1536;51.098;6.414;2023-05-07T01:54:40;16.70;99.90
3053;DHT22;1536;51.098;6.414;2023-05-07T01:57:08;16.60;99.90
3053;DHT22;1536;51.098;6.414;2023-05-07T01:59:35;16.70;99.90
3053;DHT22;1536;51.098;6.414;2023-05-07T02:02:02;16.60;99.90
3053;DHT22;1536;51.098;6.414;2023-05-07T02:04:28;16.60;99.90
3053;DHT22;1536;51.098;6.414;2023-05-07T02:06:55;16.60;99.90
3053;DHT22;1536;51.098;6.414;2023-05-07T02:09:22;16.60;99.90
3053;DHT22;1536;51.098;6.414;2023-05-07T02:11:49;16.60;99.90
3053;DHT22;1536;51.098;6.414;2023-05-07T02:14:17;16.60;99.90
3053;DHT22;1536;51.098;6.414;2023-05-07T02:16:45;16.60;99.90
3053;DHT22;1536;51.098;6.414;2023-05-07T02:19:12;16.60;99.90
3053;DHT22;1536;51.098;6.414;2023-05-07T02:21:38;16.50;99.90
3053;DHT22;1536;51.098;6.414;2023-05-07T02:24:05;16.50;99.90
3053;DHT22;1536;51.098;6.414;2023-05-07T02:26:32;16.50;99.90
3053;DHT22;1536;51.098;6.414;2023-05-07T02:28:59;16.50;99.90
3053;DHT22;1536;51.098;6.414;2023-05-07T02:31:27;16.50;99.90
3053;DHT22;1536;51.098;6.414;2023-05-07T02:33:54;16.40;99.90
3053;DHT22;1536;51.098;6.414;2023-05-07T02:36:21;16.40;99.90
3053;DHT22;1536;51.098;6.414;2023-05-07T02:38:47;16.40;99.90
3053;DHT22;1536;51.098;6.414;2023-05-07T02:41:14;16.40;99.90
3053;DHT22;1536;51.098;6.414;2023-05-07T02:43:41;16.40;99.90
3053;DHT22;1536;51.098;6.414;2023-05-07T02:46:08;16.40;99.90
3053;DHT22;1536;51.098;6.414;2023-05-07T02:48:36;16.40;99.90
3053;DHT22;1536;51.098;6.414;2023-05-07T02:51:04;16.30;99.90
3053;DHT22;1536;51.098;6.414;2023-05-07T02:53:31;16.30;99.90
3053;DHT22;1536;51.098;6.414;2023-05-07T02:55:59;16.30;99.90
3053;DHT22;1536;51.098;6.414;2023-05-07T02:58:26;16.30;99.90
3053;DHT22;1536;51.098;6.414;2023-05-07T03:00:54;16.20;99.90
3053;DHT22;1536;51.098;6.414;2023-05-07T03:03:21;16.20;99.90
3053;DHT22;1536;51.098;6.414;2023-05-07T03:05:49;16.20;99.90
3053;DHT22;1536;51.098;6.414;2023-05-07T03:08:16;16.20;99.90
3053;DHT22;1536;51.098;6.414;2023-05-07T03:10:42;16.10;99.90
3053;DHT22;1536;51.098;6.414;2023-05-07T03:13:09;16.10;99.90
3053;DHT22;1536;51.098;6.414;2023-05-07T03:15:36;16.10;99.90
3053;DHT22;1536;51.098;6.414;2023-05-07T03:18:03;16.10;99.90
3053;DHT22;1536;51.098;6.414;2023-05-07T03:20:30;16.10;99.90
3053;DHT22;1536;51.098;6.414;2023-05-07T03:22:58;16.10;99.90
3053;DHT22;1536;51.098;6.414;2023-05-07T03:25:25;16.10;99.90
3053;DHT22;1536;51.098;6.414;2023-05-07T03:27:51;16.10;99.90
3053;DHT22;1536;51.098;6.414;2023-05-07T03:30:18;16.00;99.90
3053;DHT22;1536;51.098;6.414;2023-05-07T03:32:45;16.00;99.90
3053;DHT22;1536;51.098;6.414;2023-05-07T03:35:12;16.00;99.90
3053;DHT22;1536;51.098;6.414;2023-05-07T03:37:39;16.00;99.90
3053;DHT22;1536;51.098;6.414;2023-05-07T03:40:08;16.00;99.90
3053;DHT22;1536;51.098;6.414;2023-05-07T03:42:36;16.00;99.90
3053;DHT22;1536;51.098;6.414;2023-05-07T03:45:03;16.00;99.90
3053;DHT22;1536;51.098;6.414;2023-05-07T03:47:30;16.00;99.90
3053;DHT22;1536;51.098;6.414;2023-05-07T03:49:57;15.90;99.90
3053;DHT22;1536;51.098;6.414;2023-05-07T03:52:24;15.90;99.90
3053;DHT22;1536;51.098;6.414;2023-05-07T03:54:52;15.90;99.90
3053;DHT22;1536;51.098;6.414;2023-05-07T03:57:20;15.90;99.90
3053;DHT22;1536;51.098;6.414;2023-05-07T03:59:47;15.80;99.90
3053;DHT22;1536;51.098;6.414;2023-05-07T04:02:13;15.80;99.90
3053;DHT22;1536;51.098;6.414;2023-05-07T04:04:40;15.80;99.90
3053;DHT22;1536;51.098;6.414;2023-05-07T04:07:07;15.80;99.90
3053;DHT22;1536;51.098;6.414;2023-05-07T04:09:34;15.80;99.90
3053;DHT22;1536;51.098;6.414;2023-05-07T04:12:00;15.90;99.90
3053;DHT22;1536;51.098;6.414;2023-05-07T04:14:29;15.90;99.90
3053;DHT22;1536;51.098;6.414;2023-05-07T04:16:57;15.90;99.90
3053;DHT22;1536;51.098;6.414;2023-05-07T04:19:24;15.90;99.90
3053;DHT22;1536;51.098;6.414;2023-05-07T04:21:51;15.90;99.90
3053;DHT22;1536;51.098;6.414;2023-05-07T04:24:18;15.90;99.90
3053;DHT22;1536;51.098;6.414;2023-05-07T04:26:44;15.90;99.90
3053;DHT22;1536;51.098;6.414;2023-05-07T04:29:11;16.00;99.90
3053;DHT22;1536;51.098;6.414;2023-05-07T04:31:39;16.00;99.90
3053;DHT22;1536;51.098;6.414;2023-05-07T04:34:06;16.00;99.90
3053;DHT22;1536;51.098;6.414;2023-05-07T04:36:32;16.00;99.90
3053;DHT22;1536;51.098;6.414;2023-05-07T04:38:59;16.00;99.90
3053;DHT22;1536;51.098;6.414;2023-05-07T04:41:26;16.00;99.90
3053;DHT22;1536;51.098;6.414;2023-05-07T04:43:53;16.00;99.90
3053;DHT22;1536;51.098;6.414;2023-05-07T04:46:19;16.10;99.90
3053;DHT22;1536;51.098;6.414;2023-05-07T04:48:48;16.10;99.90
3053;DHT22;1536;51.098;6.414;2023-05-07T04:51:14;16.10;99.90
3053;DHT22;1536;51.098;6.414;2023-05-07T04:53:41;16.10;99.90
3053;DHT22;1536;51.098;6.414;2023-05-07T04:56:09;16.10;99.90
3053;DHT22;1536;51.098;6.414;2023-05-07T04:58:36;16.10;99.90
3053;DHT22;1536;51.098;6.414;2023-05-07T05:01:03;16.10;99.90
3053;DHT22;1536;51.098;6.414;2023-05-07T05:03:30;16.10;99.90
3053;DHT22;1536;51.098;6.414;2023-05-07T05:05:58;16.20;99.90
3053;DHT22;1536;51.098;6.414;2023-05-07T05:08:25;16.20;99.90
3053;DHT22;1536;51.098;6.414;2023-05-07T05:10:52;16.20;99.90
3053;DHT22;1536;51.098;6.414;2023-05-07T05:13:20;16.30;99.90
3053;DHT22;1536;51.098;6.414;2023-05-07T05:15:46;16.30;99.90
3053;DHT22;1536;51.098;6.414;2023-05-07T05:18:13;16.40;99.90
3053;DHT22;1536;51.098;6.414;2023-05-07T05:20:41;16.40;99.90
3053;DHT22;1536;51.098;6.414;2023-05-07T05:23:09;16.40;99.90
3053;DHT22;1536;51.098;6.414;2023-05-07T05:25:37;16.40;99.90
3053;DHT22;1536;51.098;6.414;2023-05-07T05:28:06;16.50;99.90
3053;DHT22;1536;51.098;6.414;2023-05-07T05:30:33;16.50;99.90
3053;DHT22;1536;51.098;6.414;2023-05-07T05:33:00;16.50;99.90
3053;DHT22;1536;51.098;6.414;2023-05-07T05:35:27;16.60;99.90
3053;DHT22;1536;51.098;6.414;2023-05-07T05:37:54;16.60;99.90
3053;DHT22;1536;51.098;6.414;2023-05-07T05:40:22;16.60;99.90
3053;DHT22;1536;51.098;6.414;2023-05-07T05:42:49;16.60;99.90
3053;DHT22;1536;51.098;6.414;2023-05-07T05:45:17;16.70;99.90
3053;DHT22;1536;51.098;6.414;2023-05-07T05:47:44;16.70;99.90
3053;DHT22;1536;51.098;6.414;2023-05-07T05:50:11;16.70;99.90
3053;DHT22;1536;51.098;6.414;2023-05-07T05:52:38;16.80;99.90
3053;DHT22;1536;51.098;6.414;2023-05-07T05:55:07;16.80;99.90
3053;DHT22;1536;51.098;6.414;2023-05-07T05:57:35;16.80;99.90
3053;DHT22;1536;51.098;6.414;2023-05-07T06:00:02;16.80;99.90
3053;DHT22;1536;51.098;6.414;2023-05-07T06:02:31;16.80;99.90
3053;DHT22;1536;51.098;6.414;2023-05-07T06:04:57;16.90;99.90
3053;DHT22;1536;51.098;6.414;2023-05-07T06:07:24;16.90;99.90
3053;DHT22;1536;51.098;6.414;2023-05-07T06:09:51;16.90;99.90
3053;DHT22;1536;51.098;6.414;2023-05-07T06:12:18;17.00;99.90
3053;DHT22;1536;51.098;6.414;2023-05-07T06:14:46;17.00;99.90
3053;DHT22;1536;51.098;6.414;2023-05-07T06:17:13;17.00;99.90
3053;DHT22;1536;51.098;6.414;2023-05-07T06:19:40;17.10;99.90
3053;DHT22;1536;51.098;6.414;2023-05-07T06:22:08;17.10;99.90
3053;DHT22;1536;51.098;6.414;2023-05-07T06:24:35;17.20;99.90
3053;DHT22;1536;51.098;6.414;2023-05-07T06:27:02;17.20;99.90
3053;DHT22;1536;51.098;6.414;2023-05-07T06:29:30;17.30;99.90
3053;DHT22;1536;51.098;6.414;2023-05-07T06:32:06;17.30;99.90
3053;DHT22;1536;51.098;6.414;2023-05-07T06:34:33;17.30;99.90
3053;DHT22;1536;51.098;6.414;2023-05-07T06:37:01;17.40;99.90
3053;DHT22;1536;51.098;6.414;2023-05-07T06:39:29;17.40;99.90
3053;DHT22;1536;51.098;6.414;2023-05-07T06:42:00;17.40;99.90
3053;DHT22;1536;51.098;6.414;2023-05-07T06:44:27;17.50;99.90
3053;DHT22;1536;51.098;6.414;2023-05-07T06:46:54;17.60;99.90
3053;DHT22;1536;51.098;6.414;2023-05-07T06:49:22;17.60;99.90
3053;DHT22;1536;51.098;6.414;2023-05-07T06:51:49;17.70;99.90
3053;DHT22;1536;51.098;6.414;2023-05-07T06:54:16;17.70;99.90
3053;DHT22;1536;51.098;6.414;2023-05-07T06:56:43;17.80;99.90
3053;DHT22;1536;51.098;6.414;2023-05-07T06:59:10;17.80;99.90
3053;DHT22;1536;51.098;6.414;2023-05-07T07:01:38;17.90;99.90
3053;DHT22;1536;51.098;6.414;2023-05-07T07:04:06;18.00;99.90
3053;DHT22;1536;51.098;6.414;2023-05-07T07:06:34;18.00;99.90
3053;DHT22;1536;51.098;6.414;2023-05-07T07:09:00;18.00;99.90
3053;DHT22;1536;51.098;6.414;2023-05-07T07:11:28;18.10;99.90
3053;DHT22;1536;51.098;6.414;2023-05-07T07:13:54;18.10;99.90
3053;DHT22;1536;51.098;6.414;2023-05-07T07:16:22;18.10;99.90
3053;DHT22;1536;51.098;6.414;2023-05-07T07:18:48;18.20;99.90
3053;DHT22;1536;51.098;6.414;2023-05-07T07:21:15;18.30;99.90
3053;DHT22;1536;51.098;6.414;2023-05-07T07:23:43;18.30;99.90
3053;DHT22;1536;51.098;6.414;2023-05-07T07:26:10;18.40;99.90
3053;DHT22;1536;51.098;6.414;2023-05-07T07:28:42;18.50;99.90
3053;DHT22;1536;51.098;6.414;2023-05-07T07:31:10;18.50;99.90
3053;DHT22;1536;51.098;6.414;2023-05-07T07:33:37;18.60;99.90
3053;DHT22;1536;51.098;6.414;2023-05-07T07:36:05;18.60;99.90
3053;DHT22;1536;51.098;6.414;2023-05-07T07:38:32;18.70;99.90
3053;DHT22;1536;51.098;6.414;2023-05-07T07:41:01;18.70;99.90
3053;DHT22;1536;51.098;6.414;2023-05-07T07:43:28;18.80;99.90
3053;DHT22;1536;51.098;6.414;2023-05-07T07:45:54;18.90;99.90
3053;DHT22;1536;51.098;6.414;2023-05-07T07:48:21;19.00;99.90
3053;DHT22;1536;51.098;6.414;2023-05-07T07:50:48;19.00;99.90
3053;DHT22;1536;51.098;6.414;2023-05-07T07:53:16;19.10;99.90
3053;DHT22;1536;51.098;6.414;2023-05-07T07:55:42;19.20;99.90
3053;DHT22;1536;51.098;6.414;2023-05-07T07:58:12;19.20;99.90
3053;DHT22;1536;51.098;6.414;2023-05-07T08:00:39;19.20;99.90
3053;DHT22;1536;51.098;6.414;2023-05-07T08:03:05;19.30;99.90
3053;DHT22;1536;51.098;6.414;2023-05-07T08:05:36;19.40;99.90
3053;DHT22;1536;51.098;6.414;2023-05-07T08:08:04;19.50;99.90
3053;DHT22;1536;51.098;6.414;2023-05-07T08:10:31;19.50;99.90
3053;DHT22;1536;51.098;6.414;2023-05-07T08:13:00;19.60;99.90
3053;DHT22;1536;51.098;6.414;2023-05-07T08:15:28;19.70;99.90
3053;DHT22;1536;51.098;6.414;2023-05-07T08:17:57;19.80;99.90
3053;DHT22;1536;51.098;6.414;2023-05-07T08:20:25;19.90;99.90
3053;DHT22;1536;51.098;6.414;2023-05-07T08:22:52;20.00;99.90
3053;DHT22;1536;51.098;6.414;2023-05-07T08:25:19;20.10;99.90
3053;DHT22;1536;51.098;6.414;2023-05-07T08:27:46;20.20;99.90
3053;DHT22;1536;51.098;6.414;2023-05-07T08:30:13;20.40;99.90
3053;DHT22;1536;51.098;6.414;2023-05-07T08:32:42;20.50;99.90
3053;DHT22;1536;51.098;6.414;2023-05-07T08:35:09;20.70;99.90
3053;DHT22;1536;51.098;6.414;2023-05-07T08:37:35;20.80;99.90
3053;DHT22;1536;51.098;6.414;2023-05-07T08:40:02;20.90;99.90
3053;DHT22;1536;51.098;6.414;2023-05-07T08:42:31;20.90;99.90
3053;DHT22;1536;51.098;6.414;2023-05-07T08:44:59;21.00;99.90
3053;DHT22;1536;51.098;6.414;2023-05-07T08:47:34;21.00;99.90
3053;DHT22;1536;51.098;6.414;2023-05-07T08:50:06;21.10;99.90
3053;DHT22;1536;51.098;6.414;2023-05-07T08:52:33;21.10;99.90
3053;DHT22;1536;51.098;6.414;2023-05-07T08:55:02;21.10;99.90
3053;DHT22;1536;51.098;6.414;2023-05-07T08:57:29;21.20;99.90
3053;DHT22;1536;51.098;6.414;2023-05-07T08:59:56;21.30;99.90
3053;DHT22;1536;51.098;6.414;2023-05-07T09:02:23;21.30;99.90
3053;DHT22;1536;51.098;6.414;2023-05-07T09:04:49;21.40;99.90
3053;DHT22;1536;51.098;6.414;2023-05-07T09:07:18;21.40;99.90
3053;DHT22;1536;51.098;6.414;2023-05-07T09:09:47;21.50;99.90
3053;DHT22;1536;51.098;6.414;2023-05-07T09:12:13;21.60;99.90
3053;DHT22;1536;51.098;6.414;2023-05-07T09:14:40;21.60;99.90
3053;DHT22;1536;51.098;6.414;2023-05-07T09:17:07;21.70;99.90
3053;DHT22;1536;51.098;6.414;2023-05-07T09:19:33;21.70;99.90
3053;DHT22;1536;51.098;6.414;2023-05-07T09:22:01;21.80;99.90
3053;DHT22;1536;51.098;6.414;2023-05-07T09:24:33;21.80;99.90
3053;DHT22;1536;51.098;6.414;2023-05-07T09:27:02;21.80;99.90
3053;DHT22;1536;51.098;6.414;2023-05-07T09:29:28;21.90;99.90
3053;DHT22;1536;51.098;6.414;2023-05-07T09:32:00;21.90;99.90
3053;DHT22;1536;51.098;6.414;2023-05-07T09:34:27;22.00;99.90
3053;DHT22;1536;51.098;6.414;2023-05-07T09:36:54;22.10;99.90
3053;DHT22;1536;51.098;6.414;2023-05-07T09:39:22;22.20;99.90
3053;DHT22;1536;51.098;6.414;2023-05-07T09:41:51;22.40;99.90
3053;DHT22;1536;51.098;6.414;2023-05-07T09:44:20;22.40;99.90
3053;DHT22;1536;51.098;6.414;2023-05-07T09:46:49;22.40;99.90
3053;DHT22;1536;51.098;6.414;2023-05-07T09:49:21;22.50;99.90
3053;DHT22;1536;51.098;6.414;2023-05-07T09:51:49;22.50;99.90
3053;DHT22;1536;51.098;6.414;2023-05-07T09:54:17;22.50;99.90
3053;DHT22;1536;51.098;6.414;2023-05-07T09:56:44;22.50;99.90
3053;DHT22;1536;51.098;6.414;2023-05-07T09:59:14;22.60;99.90
3053;DHT22;1536;51.098;6.414;2023-05-07T10:01:43;22.60;99.90
3053;DHT22;1536;51.098;6.414;2023-05-07T10:04:13;22.60;99.90
3053;DHT22;1536;51.098;6.414;2023-05-07T10:06:51;22.60;99.90
3053;DHT22;1536;51.098;6.414;2023-05-07T10:09:19;22.70;99.90
3053;DHT22;1536;51.098;6.414;2023-05-07T10:11:49;22.70;99.90
3053;DHT22;1536;51.098;6.414;2023-05-07T10:14:17;22.70;99.90
3053;DHT22;1536;51.098;6.414;2023-05-07T10:16:47;22.70;99.90
3053;DHT22;1536;51.098;6.414;2023-05-07T10:19:15;22.70;99.90
3053;DHT22;1536;51.098;6.414;2023-05-07T10:21:51;22.70;99.90
3053;DHT22;1536;51.098;6.414;2023-05-07T10:24:25;22.70;99.90
3053;DHT22;1536;51.098;6.414;2023-05-07T10:26:53;22.70;99.90
3053;DHT22;1536;51.098;6.414;2023-05-07T10:29:33;22.70;99.90
3053;DHT22;1536;51.098;6.414;2023-05-07T10:32:14;22.70;99.90
3053;DHT22;1536;51.098;6.414;2023-05-07T10:34:45;22.70;99.90
3053;DHT22;1536;51.098;6.414;2023-05-07T10:37:13;22.80;99.90
3053;DHT22;1536;51.098;6.414;2023-05-07T10:39:41;22.90;99.90
3053;DHT22;1536;51.098;6.414;2023-05-07T10:42:08;22.90;99.90
3053;DHT22;1536;51.098;6.414;2023-05-07T10:44:37;22.90;99.90
3053;DHT22;1536;51.098;6.414;2023-05-07T10:47:07;22.90;99.90
3053;DHT22;1536;51.098;6.414;2023-05-07T10:49:35;23.00;99.90
3053;DHT22;1536;51.098;6.414;2023-05-07T10:52:13;23.00;99.90
3053;DHT22;1536;51.098;6.414;2023-05-07T10:54:41;23.00;99.90
3053;DHT22;1536;51.098;6.414;2023-05-07T10:57:33;23.10;99.90
3053;DHT22;1536;51.098;6.414;2023-05-07T11:00:02;23.10;99.90
3053;DHT22;1536;51.098;6.414;2023-05-07T11:03:06;23.10;99.90
3053;DHT22;1536;51.098;6.414;2023-05-07T11:05:34;23.10;99.90
3053;DHT22;1536;51.098;6.414;2023-05-07T11:08:02;23.10;99.90
3053;DHT22;1536;51.098;6.414;2023-05-07T11:10:51;23.10;99.90
3053;DHT22;1536;51.098;6.414;2023-05-07T11:13:19;23.10;99.90
3053;DHT22;1536;51.098;6.414;2023-05-07T11:16:16;23.10;99.90
3053;DHT22;1536;51.098;6.414;2023-05-07T11:18:47;23.20;99.90
3053;DHT22;1536;51.098;6.414;2023-05-07T11:21:32;23.10;99.90
3053;DHT22;1536;51.098;6.414;2023-05-07T11:23:59;23.20;99.90
3053;DHT22;1536;51.098;6.414;2023-05-07T11:26:28;23.10;99.90
3053;DHT22;1536;51.098;6.414;2023-05-07T11:28:57;23.10;99.90
3053;DHT22;1536;51.098;6.414;2023-05-07T11:31:27;23.20;99.90
3053;DHT22;1536;51.098;6.414;2023-05-07T11:33:55;23.20;99.90
3053;DHT22;1536;51.098;6.414;2023-05-07T11:36:23;23.20;99.90
3053;DHT22;1536;51.098;6.414;2023-05-07T11:38:51;23.20;99.90
3053;DHT22;1536;51.098;6.414;2023-05-07T11:41:18;23.20;99.90
3053;DHT22;1536;51.098;6.414;2023-05-07T11:43:56;23.20;99.90
3053;DHT22;1536;51.098;6.414;2023-05-07T11:46:23;23.20;99.90
3053;DHT22;1536;51.098;6.414;2023-05-07T11:48:52;23.20;99.90
3053;DHT22;1536;51.098;6.414;2023-05-07T11:51:19;23.20;99.90
3053;DHT22;1536;51.098;6.414;2023-05-07T11:53:46;23.20;99.90
3053;DHT22;1536;51.098;6.414;2023-05-07T11:56:15;23.20;99.90
3053;DHT22;1536;51.098;6.414;2023-05-07T11:58:42;23.20;99.90
3053;DHT22;1536;51.098;6.414;2023-05-07T12:01:10;23.20;99.90
3053;DHT22;1536;51.098;6.414;2023-05-07T12:03:39;23.20;99.90
3053;DHT22;1536;51.098;6.414;2023-05-07T12:06:09;23.20;99.90
3053;DHT22;1536;51.098;6.414;2023-05-07T12:08:37;23.10;99.90
3053;DHT22;1536;51.098;6.414;2023-05-07T12:11:07;23.10;99.90
3053;DHT22;1536;51.098;6.414;2023-05-07T12:13:34;23.10;99.90
3053;DHT22;1536;51.098;6.414;2023-05-07T12:16:01;23.10;99.90
3053;DHT22;1536;51.098;6.414;2023-05-07T12:18:29;23.00;99.90
3053;DHT22;1536;51.098;6.414;2023-05-07T12:20:56;23.00;99.90
3053;DHT22;1536;51.098;6.414;2023-05-07T12:23:25;22.90;99.90
3053;DHT22;1536;51.098;6.414;2023-05-07T12:25:52;22.80;99.90
3053;DHT22;1536;51.098;6.414;2023-05-07T12:28:19;22.80;99.90
3053;DHT22;1536;51.098;6.414;2023-05-07T12:30:48;22.80;99.90
3053;DHT22;1536;51.098;6.414;2023-05-07T12:33:16;22.80;99.90
3053;DHT22;1536;51.098;6.414;2023-05-07T12:35:43;22.70;99.90
3053;DHT22;1536;51.098;6.414;2023-05-07T12:38:12;22.60;99.90
3053;DHT22;1536;51.098;6.414;2023-05-07T12:40:42;22.60;99.90
3053;DHT22;1536;51.098;6.414;2023-05-07T12:43:15;22.60;99.90
3053;DHT22;1536;51.098;6.414;2023-05-07T12:45:43;22.60;99.90
3053;DHT22;1536;51.098;6.414;2023-05-07T12:48:10;22.70;99.90
3053;DHT22;1536;51.098;6.414;2023-05-07T12:50:37;22.70;99.90
3053;DHT22;1536;51.098;6.414;2023-05-07T12:53:04;22.80;99.90
3053;DHT22;1536;51.098;6.414;2023-05-07T12:55:32;22.80;99.90
3053;DHT22;1536;51.098;6.414;2023-05-07T12:58:15;22.90;99.90
3053;DHT22;1536;51.098;6.414;2023-05-07T13:00:43;23.00;99.90
3053;DHT22;1536;51.098;6.414;2023-05-07T13:03:11;23.10;99.90
3053;DHT22;1536;51.098;6.414;2023-05-07T13:05:37;23.20;99.90
3053;DHT22;1536;51.098;6.414;2023-05-07T13:08:04;23.20;99.90
3053;DHT22;1536;51.098;6.414;2023-05-07T13:10:32;23.20;99.90
3053;DHT22;1536;51.098;6.414;2023-05-07T13:12:59;23.20;99.90
3053;DHT22;1536;51.098;6.414;2023-05-07T13:15:27;23.20;99.90
3053;DHT22;1536;51.098;6.414;2023-05-07T13:17:54;23.10;99.90
3053;DHT22;1536;51.098;6.414;2023-05-07T13:20:21;23.10;99.90
3053;DHT22;1536;51.098;6.414;2023-05-07T13:22:47;23.00;99.90
3053;DHT22;1536;51.098;6.414;2023-05-07T13:25:14;22.90;99.90
3053;DHT22;1536;51.098;6.414;2023-05-07T13:27:41;22.80;99.90
3053;DHT22;1536;51.098;6.414;2023-05-07T13:30:08;22.70;99.90
3053;DHT22;1536;51.098;6.414;2023-05-07T13:32:36;22.60;99.90
3053;DHT22;1536;51.098;6.414;2023-05-07T13:35:03;22.50;99.90
3053;DHT22;1536;51.098;6.414;2023-05-07T13:37:30;22.50;99.90
3053;DHT22;1536;51.098;6.414;2023-05-07T13:39:56;22.40;99.90
3053;DHT22;1536;51.098;6.414;2023-05-07T13:42:23;22.10;99.90
3053;DHT22;1536;51.098;6.414;2023-05-07T13:44:50;21.80;99.90
3053;DHT22;1536;51.098;6.414;2023-05-07T13:47:16;21.50;99.90
3053;DHT22;1536;51.098;6.414;2023-05-07T13:49:45;21.20;99.90
3053;DHT22;1536;51.098;6.414;2023-05-07T13:52:11;21.00;99.90
3053;DHT22;1536;51.098;6.414;2023-05-07T13:54:38;20.80;99.90
3053;DHT22;1536;51.098;6.414;2023-05-07T13:57:05;20.60;99.90
3053;DHT22;1536;51.098;6.414;2023-05-07T13:59:32;20.50;99.90
3053;DHT22;1536;51.098;6.414;2023-05-07T14:01:59;20.30;99.90
3053;DHT22;1536;51.098;6.414;2023-05-07T14:04:26;20.20;99.90
3053;DHT22;1536;51.098;6.414;2023-05-07T14:06:54;20.10;99.90
3053;DHT22;1536;51.098;6.414;2023-05-07T14:09:21;19.90;99.90
3053;DHT22;1536;51.098;6.414;2023-05-07T14:11:47;19.80;99.90
3053;DHT22;1536;51.098;6.414;2023-05-07T14:14:16;19.70;99.90
3053;DHT22;1536;51.098;6.414;2023-05-07T14:16:43;19.60;99.90
3053;DHT22;1536;51.098;6.414;2023-05-07T14:19:10;19.40;99.90
3053;DHT22;1536;51.098;6.414;2023-05-07T14:21:37;19.40;99.90
3053;DHT22;1536;51.098;6.414;2023-05-07T14:24:06;19.30;99.90
3053;DHT22;1536;51.098;6.414;2023-05-07T14:26:33;19.20;99.90
3053;DHT22;1536;51.098;6.414;2023-05-07T14:29:00;19.20;99.90
3053;DHT22;1536;51.098;6.414;2023-05-07T14:31:27;19.20;99.90
3053;DHT22;1536;51.098;6.414;2023-05-07T14:33:54;19.10;99.90
3053;DHT22;1536;51.098;6.414;2023-05-07T14:36:23;19.10;99.90
3053;DHT22;1536;51.098;6.414;2023-05-07T14:38:51;19.10;99.90
3053;DHT22;1536;51.098;6.414;2023-05-07T14:41:20;19.10;99.90
3053;DHT22;1536;51.098;6.414;2023-05-07T14:43:47;19.10;99.90
3053;DHT22;1536;51.098;6.414;2023-05-07T14:46:15;19.10;99.90
3053;DHT22;1536;51.098;6.414;2023-05-07T14:48:43;19.20;99.90
3053;DHT22;1536;51.098;6.414;2023-05-07T14:51:10;19.20;99.90
3053;DHT22;1536;51.098;6.414;2023-05-07T14:53:37;19.30;99.90
3053;DHT22;1536;51.098;6.414;2023-05-07T14:56:04;19.30;99.90
3053;DHT22;1536;51.098;6.414;2023-05-07T14:58:33;19.40;99.90
3053;DHT22;1536;51.098;6.414;2023-05-07T15:01:00;19.50;99.90
3053;DHT22;1536;51.098;6.414;2023-05-07T15:03:27;19.50;99.90
3053;DHT22;1536;51.098;6.414;2023-05-07T15:05:54;19.50;99.90
3053;DHT22;1536;51.098;6.414;2023-05-07T15:08:21;19.60;99.90
3053;DHT22;1536;51.098;6.414;2023-05-07T15:10:47;19.70;99.90
3053;DHT22;1536;51.098;6.414;2023-05-07T15:13:14;19.70;99.90
3053;DHT22;1536;51.098;6.414;2023-05-07T15:15:42;19.80;99.90
3053;DHT22;1536;51.098;6.414;2023-05-07T15:18:10;19.80;99.90
3053;DHT22;1536;51.098;6.414;2023-05-07T15:20:37;19.90;99.90
3053;DHT22;1536;51.098;6.414;2023-05-07T15:23:03;19.90;99.90
3053;DHT22;1536;51.098;6.414;2023-05-07T15:25:31;20.00;99.90
3053;DHT22;1536;51.098;6.414;2023-05-07T15:27:59;20.10;99.90
3053;DHT22;1536;51.098;6.414;2023-05-07T15:30:25;20.10;99.90
3053;DHT22;1536;51.098;6.414;2023-05-07T15:32:54;20.20;99.90
3053;DHT22;1536;51.098;6.414;2023-05-07T15:35:21;20.20;99.90
3053;DHT22;1536;51.098;6.414;2023-05-07T15:37:47;20.20;99.90
3053;DHT22;1536;51.098;6.414;2023-05-07T15:40:16;20.30;99.90
3053;DHT22;1536;51.098;6.414;2023-05-07T15:42:43;20.30;99.90
3053;DHT22;1536;51.098;6.414;2023-05-07T15:45:11;20.30;99.90
3053;DHT22;1536;51.098;6.414;2023-05-07T15:47:38;20.30;99.90
3053;DHT22;1536;51.098;6.414;2023-05-07T15:50:07;20.30;99.90
3053;DHT22;1536;51.098;6.414;2023-05-07T15:52:33;20.30;99.90
3053;DHT22;1536;51.098;6.414;2023-05-07T15:55:00;20.30;99.90
3053;DHT22;1536;51.098;6.414;2023-05-07T15:57:27;20.30;99.90
3053;DHT22;1536;51.098;6.414;2023-05-07T15:59:54;20.30;99.90
3053;DHT22;1536;51.098;6.414;2023-05-07T16:02:21;20.30;99.90
3053;DHT22;1536;51.098;6.414;2023-05-07T16:04:48;20.30;99.90
3053;DHT22;1536;51.098;6.414;2023-05-07T16:07:16;20.30;99.90